KPNT

Details ICAO KPNT
Name PONTIAC MUNI
Region United States
Timezone America/Chicago (UTC-5.0)
Plans Departing 18
Arriving 1
Stats Elevation 666 ft / 203 m (AMSL)
Location 40.924364° -88.623889°
Runways 1
Magnetic Variation 3.044° W
Sunrise 2018-05-25 10:30:12 UTC / 2018-05-25 05:30:12 Local
Sunset 2018-05-26 01:15:35 UTC / 2018-05-25 20:15:35 Local
Advertisement - Login to hide

Runways

ID Width Length Bearing (true) Bearing (mag) Surface Threshold Offset Overrun Length
06 75 ft / 23 m 4,994 ft / 1,522 m 59.21° 62.25° Asphalt 0 ft / 0 m 0 ft / 0 m
24 75 ft / 23 m 4,994 ft / 1,522 m 239.22° 242.26° Asphalt 0 ft / 0 m 0 ft / 0 m

Map

Weather


0- 5 10 15 20 25 30 35+ Temperature / ° C

Clouds and Precipitation
Forecast for 2018-05-25 12:00 UTC. Updated 2 hours ago

Ground ~20,000 ft ~40,000 ft Winds

METAR

KPNT 251315Z AUTO 21007KT 10SM CLR 25/15 A2998 RMK AO2 T02510145

TAF

Not found

Frequencies

Recorded 119.67 MHz AWOS 3
Unicom 122.80 MHz CTAF/UNICOM
Warning: Do not use this data for real-world aviation or navigation. No guarantee of current accuracy is given.